sensor_id;sensor_type;location;lat;lon;timestamp;temperature;humidity
51950;DHT22;37974;53.218;6.640;2024-03-07T00:02:19;4.90;99.90
51950;DHT22;37974;53.218;6.640;2024-03-07T00:04:45;4.90;99.90
51950;DHT22;37974;53.218;6.640;2024-03-07T00:07:11;4.90;99.90
51950;DHT22;37974;53.218;6.640;2024-03-07T00:09:37;4.90;99.90
51950;DHT22;37974;53.218;6.640;2024-03-07T00:12:04;4.80;99.90
51950;DHT22;37974;53.218;6.640;2024-03-07T00:14:32;4.80;99.90
51950;DHT22;37974;53.218;6.640;2024-03-07T00:16:58;4.70;99.90
51950;DHT22;37974;53.218;6.640;2024-03-07T00:19:25;4.70;99.90
51950;DHT22;37974;53.218;6.640;2024-03-07T00:21:53;4.70;99.90
51950;DHT22;37974;53.218;6.640;2024-03-07T00:24:21;4.70;99.90
51950;DHT22;37974;53.218;6.640;2024-03-07T00:26:48;4.70;99.90
51950;DHT22;37974;53.218;6.640;2024-03-07T00:29:17;4.60;99.90
51950;DHT22;37974;53.218;6.640;2024-03-07T00:31:46;4.70;99.90
51950;DHT22;37974;53.218;6.640;2024-03-07T00:34:13;4.70;99.90
51950;DHT22;37974;53.218;6.640;2024-03-07T00:36:42;4.70;99.90
51950;DHT22;37974;53.218;6.640;2024-03-07T00:39:08;4.70;99.90
51950;DHT22;37974;53.218;6.640;2024-03-07T00:41:38;5.10;99.90
51950;DHT22;37974;53.218;6.640;2024-03-07T00:44:04;4.60;99.90
51950;DHT22;37974;53.218;6.640;2024-03-07T00:46:30;5.00;99.90
51950;DHT22;37974;53.218;6.640;2024-03-07T00:48:57;4.70;99.90
51950;DHT22;37974;53.218;6.640;2024-03-07T00:51:23;4.60;99.90
51950;DHT22;37974;53.218;6.640;2024-03-07T00:53:48;4.60;99.90
51950;DHT22;37974;53.218;6.640;2024-03-07T00:56:14;5.00;99.90
51950;DHT22;37974;53.218;6.640;2024-03-07T00:58:40;4.60;99.90
51950;DHT22;37974;53.218;6.640;2024-03-07T01:01:06;4.60;99.90
51950;DHT22;37974;53.218;6.640;2024-03-07T01:03:32;4.60;99.90
51950;DHT22;37974;53.218;6.640;2024-03-07T01:05:57;4.60;99.90
51950;DHT22;37974;53.218;6.640;2024-03-07T01:08:23;4.50;99.90
51950;DHT22;37974;53.218;6.640;2024-03-07T01:10:49;4.60;99.90
51950;DHT22;37974;53.218;6.640;2024-03-07T01:13:14;4.50;99.90
51950;DHT22;37974;53.218;6.640;2024-03-07T01:15:45;4.50;99.90
51950;DHT22;37974;53.218;6.640;2024-03-07T01:18:11;4.40;99.90
51950;DHT22;37974;53.218;6.640;2024-03-07T01:20:38;4.70;99.90
51950;DHT22;37974;53.218;6.640;2024-03-07T01:23:03;4.20;99.90
51950;DHT22;37974;53.218;6.640;2024-03-07T01:25:29;4.20;99.90
51950;DHT22;37974;53.218;6.640;2024-03-07T01:27:59;4.30;99.90
51950;DHT22;37974;53.218;6.640;2024-03-07T01:30:25;4.40;99.90
51950;DHT22;37974;53.218;6.640;2024-03-07T01:32:54;4.00;99.90
51950;DHT22;37974;53.218;6.640;2024-03-07T01:35:20;3.90;99.90
51950;DHT22;37974;53.218;6.640;2024-03-07T01:37:46;3.90;99.90
51950;DHT22;37974;53.218;6.640;2024-03-07T01:40:12;3.80;99.90
51950;DHT22;37974;53.218;6.640;2024-03-07T01:42:40;3.70;99.90
51950;DHT22;37974;53.218;6.640;2024-03-07T01:45:06;3.70;99.90
51950;DHT22;37974;53.218;6.640;2024-03-07T01:47:34;3.60;99.90
51950;DHT22;37974;53.218;6.640;2024-03-07T01:50:02;3.70;99.90
51950;DHT22;37974;53.218;6.640;2024-03-07T01:52:29;3.60;99.90
51950;DHT22;37974;53.218;6.640;2024-03-07T01:54:55;3.50;99.90
51950;DHT22;37974;53.218;6.640;2024-03-07T01:57:21;3.50;99.90
51950;DHT22;37974;53.218;6.640;2024-03-07T01:59:47;3.40;99.90
51950;DHT22;37974;53.218;6.640;2024-03-07T02:02:13;3.50;99.90
51950;DHT22;37974;53.218;6.640;2024-03-07T02:04:39;3.40;99.90
51950;DHT22;37974;53.218;6.640;2024-03-07T02:07:05;3.30;99.90
51950;DHT22;37974;53.218;6.640;2024-03-07T02:09:31;3.30;99.90
51950;DHT22;37974;53.218;6.640;2024-03-07T02:11:57;3.20;99.90
51950;DHT22;37974;53.218;6.640;2024-03-07T02:14:23;3.50;99.90
51950;DHT22;37974;53.218;6.640;2024-03-07T02:16:48;3.20;99.90
51950;DHT22;37974;53.218;6.640;2024-03-07T02:19:15;3.60;99.90
51950;DHT22;37974;53.218;6.640;2024-03-07T02:21:41;3.10;99.90
51950;DHT22;37974;53.218;6.640;2024-03-07T02:24:07;3.10;99.90
51950;DHT22;37974;53.218;6.640;2024-03-07T02:26:34;3.20;99.90
51950;DHT22;37974;53.218;6.640;2024-03-07T02:28:59;3.00;99.90
51950;DHT22;37974;53.218;6.640;2024-03-07T02:31:25;3.00;99.90
51950;DHT22;37974;53.218;6.640;2024-03-07T02:34:02;3.00;99.90
51950;DHT22;37974;53.218;6.640;2024-03-07T02:36:27;3.40;99.90
51950;DHT22;37974;53.218;6.640;2024-03-07T02:38:53;3.10;99.90
51950;DHT22;37974;53.218;6.640;2024-03-07T02:41:19;3.20;99.90
51950;DHT22;37974;53.218;6.640;2024-03-07T02:43:45;3.50;99.90
51950;DHT22;37974;53.218;6.640;2024-03-07T02:46:11;2.90;99.90
51950;DHT22;37974;53.218;6.640;2024-03-07T02:48:38;2.90;99.90
51950;DHT22;37974;53.218;6.640;2024-03-07T02:51:04;3.30;99.90
51950;DHT22;37974;53.218;6.640;2024-03-07T02:53:31;2.80;99.90
51950;DHT22;37974;53.218;6.640;2024-03-07T02:55:58;3.50;99.90
51950;DHT22;37974;53.218;6.640;2024-03-07T02:58:24;2.70;99.90
51950;DHT22;37974;53.218;6.640;2024-03-07T03:00:58;2.80;99.90
51950;DHT22;37974;53.218;6.640;2024-03-07T03:03:26;2.70;99.90
51950;DHT22;37974;53.218;6.640;2024-03-07T03:05:52;2.70;99.90
51950;DHT22;37974;53.218;6.640;2024-03-07T03:08:18;2.80;99.90
51950;DHT22;37974;53.218;6.640;2024-03-07T03:10:44;3.50;99.90
51950;DHT22;37974;53.218;6.640;2024-03-07T03:13:10;2.70;99.90
51950;DHT22;37974;53.218;6.640;2024-03-07T03:15:36;2.90;99.90
51950;DHT22;37974;53.218;6.640;2024-03-07T03:18:04;2.60;99.90
51950;DHT22;37974;53.218;6.640;2024-03-07T03:20:31;2.60;99.90
51950;DHT22;37974;53.218;6.640;2024-03-07T03:23:05;2.70;99.90
51950;DHT22;37974;53.218;6.640;2024-03-07T03:25:32;2.50;99.90
51950;DHT22;37974;53.218;6.640;2024-03-07T03:28:01;2.50;99.90
51950;DHT22;37974;53.218;6.640;2024-03-07T03:30:29;2.50;99.90
51950;DHT22;37974;53.218;6.640;2024-03-07T03:32:55;2.50;99.90
51950;DHT22;37974;53.218;6.640;2024-03-07T03:35:20;2.90;99.90
51950;DHT22;37974;53.218;6.640;2024-03-07T03:37:46;2.40;99.90
51950;DHT22;37974;53.218;6.640;2024-03-07T03:40:13;2.90;99.90
51950;DHT22;37974;53.218;6.640;2024-03-07T03:42:39;2.40;99.90
51950;DHT22;37974;53.218;6.640;2024-03-07T03:45:06;2.90;99.90
51950;DHT22;37974;53.218;6.640;2024-03-07T03:47:35;2.30;99.90
51950;DHT22;37974;53.218;6.640;2024-03-07T03:50:02;2.30;99.90
51950;DHT22;37974;53.218;6.640;2024-03-07T03:52:28;2.30;99.90
51950;DHT22;37974;53.218;6.640;2024-03-07T03:54:54;2.50;99.90
51950;DHT22;37974;53.218;6.640;2024-03-07T03:57:20;2.60;99.90
51950;DHT22;37974;53.218;6.640;2024-03-07T03:59:45;2.20;99.90
51950;DHT22;37974;53.218;6.640;2024-03-07T04:02:11;2.20;99.90
51950;DHT22;37974;53.218;6.640;2024-03-07T04:04:40;2.50;99.90
51950;DHT22;37974;53.218;6.640;2024-03-07T04:07:06;2.20;99.90
51950;DHT22;37974;53.218;6.640;2024-03-07T04:09:32;2.30;99.90
51950;DHT22;37974;53.218;6.640;2024-03-07T04:11:57;2.50;99.90
51950;DHT22;37974;53.218;6.640;2024-03-07T04:14:25;2.70;99.90
51950;DHT22;37974;53.218;6.640;2024-03-07T04:16:51;2.70;99.90
51950;DHT22;37974;53.218;6.640;2024-03-07T04:19:17;2.30;99.90
51950;DHT22;37974;53.218;6.640;2024-03-07T04:21:46;1.40;99.90
51950;DHT22;37974;53.218;6.640;2024-03-07T04:24:12;1.80;99.90
51950;DHT22;37974;53.218;6.640;2024-03-07T04:26:38;2.90;99.90
51950;DHT22;37974;53.218;6.640;2024-03-07T04:29:03;2.40;99.90
51950;DHT22;37974;53.218;6.640;2024-03-07T04:31:29;1.70;99.90
51950;DHT22;37974;53.218;6.640;2024-03-07T04:33:55;1.60;99.90
51950;DHT22;37974;53.218;6.640;2024-03-07T04:36:21;2.00;99.90
51950;DHT22;37974;53.218;6.640;2024-03-07T04:38:46;2.50;99.90
51950;DHT22;37974;53.218;6.640;2024-03-07T04:41:12;1.60;99.90
51950;DHT22;37974;53.218;6.640;2024-03-07T04:43:40;1.70;99.90
51950;DHT22;37974;53.218;6.640;2024-03-07T04:46:08;2.70;99.90
51950;DHT22;37974;53.218;6.640;2024-03-07T04:48:34;2.50;99.90
51950;DHT22;37974;53.218;6.640;2024-03-07T04:50:59;2.20;99.90
51950;DHT22;37974;53.218;6.640;2024-03-07T04:53:25;2.30;99.90
51950;DHT22;37974;53.218;6.640;2024-03-07T04:55:51;2.20;99.90
51950;DHT22;37974;53.218;6.640;2024-03-07T04:58:17;2.00;99.90
51950;DHT22;37974;53.218;6.640;2024-03-07T05:00:43;1.40;99.90
51950;DHT22;37974;53.218;6.640;2024-03-07T05:03:09;1.70;99.90
51950;DHT22;37974;53.218;6.640;2024-03-07T05:05:35;2.00;99.90
51950;DHT22;37974;53.218;6.640;2024-03-07T05:08:00;1.80;99.90
51950;DHT22;37974;53.218;6.640;2024-03-07T05:10:26;1.80;99.90
51950;DHT22;37974;53.218;6.640;2024-03-07T05:12:55;1.60;99.90
51950;DHT22;37974;53.218;6.640;2024-03-07T05:15:21;1.50;99.90
51950;DHT22;37974;53.218;6.640;2024-03-07T05:17:51;1.30;99.90
51950;DHT22;37974;53.218;6.640;2024-03-07T05:20:17;1.10;99.90
51950;DHT22;37974;53.218;6.640;2024-03-07T05:22:43;1.70;99.90
51950;DHT22;37974;53.218;6.640;2024-03-07T05:25:16;1.70;99.90
51950;DHT22;37974;53.218;6.640;2024-03-07T05:27:42;1.90;99.90
51950;DHT22;37974;53.218;6.640;2024-03-07T05:30:08;1.30;99.90
51950;DHT22;37974;53.218;6.640;2024-03-07T05:32:37;1.10;99.90
51950;DHT22;37974;53.218;6.640;2024-03-07T05:35:05;1.40;99.90
51950;DHT22;37974;53.218;6.640;2024-03-07T05:37:30;1.10;99.90
51950;DHT22;37974;53.218;6.640;2024-03-07T05:39:57;1.20;99.90
51950;DHT22;37974;53.218;6.640;2024-03-07T05:42:23;1.90;99.90
51950;DHT22;37974;53.218;6.640;2024-03-07T05:44:51;1.10;99.90
51950;DHT22;37974;53.218;6.640;2024-03-07T05:47:17;1.30;99.90
51950;DHT22;37974;53.218;6.640;2024-03-07T05:49:43;1.10;99.90
51950;DHT22;37974;53.218;6.640;2024-03-07T05:52:09;1.00;99.90
51950;DHT22;37974;53.218;6.640;2024-03-07T05:54:35;1.20;99.90
51950;DHT22;37974;53.218;6.640;2024-03-07T05:57:02;1.00;99.90
51950;DHT22;37974;53.218;6.640;2024-03-07T05:59:28;1.00;99.90
51950;DHT22;37974;53.218;6.640;2024-03-07T06:01:54;1.00;99.90
51950;DHT22;37974;53.218;6.640;2024-03-07T06:04:21;1.00;99.90
51950;DHT22;37974;53.218;6.640;2024-03-07T06:06:47;2.00;99.90
51950;DHT22;37974;53.218;6.640;2024-03-07T06:09:14;1.30;99.90
51950;DHT22;37974;53.218;6.640;2024-03-07T06:11:40;0.90;99.90
51950;DHT22;37974;53.218;6.640;2024-03-07T06:14:08;1.00;99.90
51950;DHT22;37974;53.218;6.640;2024-03-07T06:16:36;1.50;99.90
51950;DHT22;37974;53.218;6.640;2024-03-07T06:19:04;0.90;99.90
51950;DHT22;37974;53.218;6.640;2024-03-07T06:21:33;1.00;99.90
51950;DHT22;37974;53.218;6.640;2024-03-07T06:23:59;1.30;99.90
51950;DHT22;37974;53.218;6.640;2024-03-07T06:26:26;1.60;99.90
51950;DHT22;37974;53.218;6.640;2024-03-07T06:29:12;0.90;99.90
51950;DHT22;37974;53.218;6.640;2024-03-07T06:31:39;1.20;99.90
51950;DHT22;37974;53.218;6.640;2024-03-07T06:34:05;2.30;99.90
51950;DHT22;37974;53.218;6.640;2024-03-07T06:36:31;1.10;99.90
51950;DHT22;37974;53.218;6.640;2024-03-07T06:38:56;1.70;99.90
51950;DHT22;37974;53.218;6.640;2024-03-07T06:41:22;1.30;99.90
51950;DHT22;37974;53.218;6.640;2024-03-07T06:43:48;1.20;99.90
51950;DHT22;37974;53.218;6.640;2024-03-07T06:46:15;1.20;99.90
51950;DHT22;37974;53.218;6.640;2024-03-07T06:48:43;2.00;99.90
51950;DHT22;37974;53.218;6.640;2024-03-07T06:51:09;1.30;99.90
51950;DHT22;37974;53.218;6.640;2024-03-07T06:53:36;1.70;99.90
51950;DHT22;37974;53.218;6.640;2024-03-07T06:56:02;1.40;99.90
51950;DHT22;37974;53.218;6.640;2024-03-07T06:58:27;1.50;99.90
51950;DHT22;37974;53.218;6.640;2024-03-07T07:00:54;1.80;99.90
51950;DHT22;37974;53.218;6.640;2024-03-07T07:03:21;1.50;99.90
51950;DHT22;37974;53.218;6.640;2024-03-07T07:05:48;1.60;99.90
51950;DHT22;37974;53.218;6.640;2024-03-07T07:08:14;1.60;99.90
51950;DHT22;37974;53.218;6.640;2024-03-07T07:10:40;2.30;99.90
51950;DHT22;37974;53.218;6.640;2024-03-07T07:13:06;1.70;99.90
51950;DHT22;37974;53.218;6.640;2024-03-07T07:15:32;2.30;99.90
51950;DHT22;37974;53.218;6.640;2024-03-07T07:17:58;1.70;99.90
51950;DHT22;37974;53.218;6.640;2024-03-07T07:20:24;1.70;99.90
51950;DHT22;37974;53.218;6.640;2024-03-07T07:22:51;2.10;99.90
51950;DHT22;37974;53.218;6.640;2024-03-07T07:25:18;1.70;99.90
51950;DHT22;37974;53.218;6.640;2024-03-07T07:27:47;2.10;99.90
51950;DHT22;37974;53.218;6.640;2024-03-07T07:30:16;2.30;99.90
51950;DHT22;37974;53.218;6.640;2024-03-07T07:32:43;2.00;99.90
51950;DHT22;37974;53.218;6.640;2024-03-07T07:35:09;2.60;99.90
51950;DHT22;37974;53.218;6.640;2024-03-07T07:37:44;1.90;99.90
51950;DHT22;37974;53.218;6.640;2024-03-07T07:40:12;1.90;99.90
51950;DHT22;37974;53.218;6.640;2024-03-07T07:42:41;1.80;99.90
51950;DHT22;37974;53.218;6.640;2024-03-07T07:45:09;1.90;99.90
51950;DHT22;37974;53.218;6.640;2024-03-07T07:47:39;1.90;99.90
51950;DHT22;37974;53.218;6.640;2024-03-07T07:50:09;1.90;99.90
51950;DHT22;37974;53.218;6.640;2024-03-07T07:52:47;1.90;99.90
51950;DHT22;37974;53.218;6.640;2024-03-07T07:55:17;1.90;99.90
51950;DHT22;37974;53.218;6.640;2024-03-07T07:57:45;2.00;99.90
51950;DHT22;37974;53.218;6.640;2024-03-07T08:00:14;2.00;99.90
51950;DHT22;37974;53.218;6.640;2024-03-07T08:02:50;2.00;99.90
51950;DHT22;37974;53.218;6.640;2024-03-07T08:05:17;2.00;99.90
51950;DHT22;37974;53.218;6.640;2024-03-07T08:07:45;2.00;99.90
51950;DHT22;37974;53.218;6.640;2024-03-07T08:10:13;2.00;99.90
51950;DHT22;37974;53.218;6.640;2024-03-07T08:12:40;2.00;99.90
51950;DHT22;37974;53.218;6.640;2024-03-07T08:15:11;2.20;99.90
51950;DHT22;37974;53.218;6.640;2024-03-07T08:17:40;2.10;99.90
51950;DHT22;37974;53.218;6.640;2024-03-07T08:20:10;2.70;99.90
51950;DHT22;37974;53.218;6.640;2024-03-07T08:22:38;2.10;99.90
51950;DHT22;37974;53.218;6.640;2024-03-07T08:25:07;2.10;99.90
51950;DHT22;37974;53.218;6.640;2024-03-07T08:27:36;2.20;99.90
51950;DHT22;37974;53.218;6.640;2024-03-07T08:30:03;2.60;99.90
51950;DHT22;37974;53.218;6.640;2024-03-07T08:32:32;2.30;99.90
51950;DHT22;37974;53.218;6.640;2024-03-07T08:35:00;2.30;99.90
51950;DHT22;37974;53.218;6.640;2024-03-07T08:37:39;2.70;99.90
51950;DHT22;37974;53.218;6.640;2024-03-07T08:40:05;2.40;99.90
51950;DHT22;37974;53.218;6.640;2024-03-07T08:42:33;2.50;99.90
51950;DHT22;37974;53.218;6.640;2024-03-07T08:45:00;2.50;99.90
51950;DHT22;37974;53.218;6.640;2024-03-07T08:47:27;2.70;99.90
51950;DHT22;37974;53.218;6.640;2024-03-07T08:49:54;2.60;99.90
51950;DHT22;37974;53.218;6.640;2024-03-07T08:52:20;2.50;99.90
51950;DHT22;37974;53.218;6.640;2024-03-07T08:54:45;2.80;99.90
51950;DHT22;37974;53.218;6.640;2024-03-07T08:57:12;2.50;99.90
51950;DHT22;37974;53.218;6.640;2024-03-07T08:59:40;2.50;99.90
51950;DHT22;37974;53.218;6.640;2024-03-07T09:02:05;2.50;99.90
51950;DHT22;37974;53.218;6.640;2024-03-07T09:04:31;2.80;99.90
51950;DHT22;37974;53.218;6.640;2024-03-07T09:06:57;2.60;99.90
51950;DHT22;37974;53.218;6.640;2024-03-07T09:09:22;2.70;99.90
51950;DHT22;37974;53.218;6.640;2024-03-07T09:11:48;3.30;99.90
51950;DHT22;37974;53.218;6.640;2024-03-07T09:14:14;3.10;99.90
51950;DHT22;37974;53.218;6.640;2024-03-07T09:16:40;2.70;99.90
51950;DHT22;37974;53.218;6.640;2024-03-07T09:19:06;2.70;99.90
51950;DHT22;37974;53.218;6.640;2024-03-07T09:21:32;2.70;99.90
51950;DHT22;37974;53.218;6.640;2024-03-07T09:23:57;2.80;99.90
51950;DHT22;37974;53.218;6.640;2024-03-07T09:26:23;2.80;99.90
51950;DHT22;37974;53.218;6.640;2024-03-07T09:28:49;2.80;99.90
51950;DHT22;37974;53.218;6.640;2024-03-07T09:31:14;3.40;99.90
51950;DHT22;37974;53.218;6.640;2024-03-07T09:33:41;2.80;99.90
51950;DHT22;37974;53.218;6.640;2024-03-07T09:36:07;2.80;99.90
51950;DHT22;37974;53.218;6.640;2024-03-07T09:38:34;2.80;99.90
51950;DHT22;37974;53.218;6.640;2024-03-07T09:40:59;2.80;99.90
51950;DHT22;37974;53.218;6.640;2024-03-07T09:43:27;2.90;99.90
51950;DHT22;37974;53.218;6.640;2024-03-07T09:45:55;3.00;99.90
51950;DHT22;37974;53.218;6.640;2024-03-07T09:48:22;2.90;99.90
51950;DHT22;37974;53.218;6.640;2024-03-07T09:50:52;3.00;99.90
51950;DHT22;37974;53.218;6.640;2024-03-07T09:53:20;3.00;99.90
51950;DHT22;37974;53.218;6.640;2024-03-07T09:55:47;3.00;99.90
51950;DHT22;37974;53.218;6.640;2024-03-07T09:58:15;3.00;99.90
51950;DHT22;37974;53.218;6.640;2024-03-07T10:00:45;3.00;99.90
51950;DHT22;37974;53.218;6.640;2024-03-07T10:03:12;3.00;99.90
51950;DHT22;37974;53.218;6.640;2024-03-07T10:05:40;3.10;99.90
51950;DHT22;37974;53.218;6.640;2024-03-07T10:08:06;3.30;99.90
51950;DHT22;37974;53.218;6.640;2024-03-07T10:10:33;3.10;99.90
51950;DHT22;37974;53.218;6.640;2024-03-07T10:12:59;3.10;99.90
51950;DHT22;37974;53.218;6.640;2024-03-07T10:15:29;3.10;99.90
51950;DHT22;37974;53.218;6.640;2024-03-07T10:17:54;3.20;99.90
51950;DHT22;37974;53.218;6.640;2024-03-07T10:20:20;3.20;99.90
51950;DHT22;37974;53.218;6.640;2024-03-07T10:22:48;3.20;99.90
51950;DHT22;37974;53.218;6.640;2024-03-07T10:25:17;3.40;99.90
51950;DHT22;37974;53.218;6.640;2024-03-07T10:27:43;3.30;99.90
51950;DHT22;37974;53.218;6.640;2024-03-07T10:30:12;4.00;99.90
51950;DHT22;37974;53.218;6.640;2024-03-07T10:32:46;3.40;99.90
51950;DHT22;37974;53.218;6.640;2024-03-07T10:35:13;3.40;99.90
51950;DHT22;37974;53.218;6.640;2024-03-07T10:37:41;3.50;99.90
51950;DHT22;37974;53.218;6.640;2024-03-07T10:40:07;3.50;99.90
51950;DHT22;37974;53.218;6.640;2024-03-07T10:42:45;3.50;99.90
51950;DHT22;37974;53.218;6.640;2024-03-07T10:45:12;4.10;99.90
51950;DHT22;37974;53.218;6.640;2024-03-07T10:47:43;3.50;99.90
51950;DHT22;37974;53.218;6.640;2024-03-07T10:50:33;3.50;99.90
51950;DHT22;37974;53.218;6.640;2024-03-07T10:53:20;3.60;99.90
51950;DHT22;37974;53.218;6.640;2024-03-07T10:58:37;3.90;99.90
51950;DHT22;37974;53.218;6.640;2024-03-07T11:01:05;3.90;99.90
51950;DHT22;37974;53.218;6.640;2024-03-07T11:03:31;4.00;99.90
51950;DHT22;37974;53.218;6.640;2024-03-07T11:05:59;4.10;99.90
51950;DHT22;37974;53.218;6.640;2024-03-07T11:08:26;4.20;99.90
51950;DHT22;37974;53.218;6.640;2024-03-07T11:10:52;4.30;99.90
51950;DHT22;37974;53.218;6.640;2024-03-07T11:13:19;4.40;99.90
51950;DHT22;37974;53.218;6.640;2024-03-07T11:15:47;4.50;99.90
51950;DHT22;37974;53.218;6.640;2024-03-07T11:18:13;4.60;99.90
51950;DHT22;37974;53.218;6.640;2024-03-07T11:20:40;4.60;99.90
51950;DHT22;37974;53.218;6.640;2024-03-07T11:23:30;4.70;99.90
51950;DHT22;37974;53.218;6.640;2024-03-07T11:26:03;4.80;99.90
51950;DHT22;37974;53.218;6.640;2024-03-07T11:28:34;4.80;99.90
51950;DHT22;37974;53.218;6.640;2024-03-07T11:31:15;4.80;99.90
51950;DHT22;37974;53.218;6.640;2024-03-07T11:34:12;4.90;99.90
51950;DHT22;37974;53.218;6.640;2024-03-07T11:36:42;5.00;99.90
51950;DHT22;37974;53.218;6.640;2024-03-07T11:39:40;5.10;99.90
51950;DHT22;37974;53.218;6.640;2024-03-07T11:42:09;5.30;99.90
51950;DHT22;37974;53.218;6.640;2024-03-07T11:44:34;5.40;99.90
51950;DHT22;37974;53.218;6.640;2024-03-07T11:47:01;5.50;99.90
51950;DHT22;37974;53.218;6.640;2024-03-07T11:49:35;5.50;99.90
51950;DHT22;37974;53.218;6.640;2024-03-07T11:52:02;5.50;99.90
51950;DHT22;37974;53.218;6.640;2024-03-07T11:54:39;5.60;99.90
51950;DHT22;37974;53.218;6.640;2024-03-07T11:57:12;5.60;99.90
51950;DHT22;37974;53.218;6.640;2024-03-07T11:59:41;5.70;99.90
51950;DHT22;37974;53.218;6.640;2024-03-07T12:02:12;5.80;99.90
51950;DHT22;37974;53.218;6.640;2024-03-07T12:04:39;5.90;99.90
51950;DHT22;37974;53.218;6.640;2024-03-07T12:07:05;6.00;99.90
51950;DHT22;37974;53.218;6.640;2024-03-07T12:09:32;6.10;99.90
51950;DHT22;37974;53.218;6.640;2024-03-07T12:12:02;6.10;99.90
51950;DHT22;37974;53.218;6.640;2024-03-07T12:14:28;6.20;99.90
51950;DHT22;37974;53.218;6.640;2024-03-07T12:16:54;6.10;99.90
51950;DHT22;37974;53.218;6.640;2024-03-07T12:19:22;6.10;99.90
51950;DHT22;37974;53.218;6.640;2024-03-07T12:21:48;6.20;99.90
51950;DHT22;37974;53.218;6.640;2024-03-07T12:24:15;6.20;99.90
51950;DHT22;37974;53.218;6.640;2024-03-07T12:26:41;6.20;99.90
51950;DHT22;37974;53.218;6.640;2024-03-07T12:29:10;6.20;99.90
51950;DHT22;37974;53.218;6.640;2024-03-07T12:31:41;6.20;99.90
51950;DHT22;37974;53.218;6.640;2024-03-07T12:34:08;6.30;99.90
51950;DHT22;37974;53.218;6.640;2024-03-07T12:36:35;6.40;99.90
51950;DHT22;37974;53.218;6.640;2024-03-07T12:39:24;6.50;99.90
51950;DHT22;37974;53.218;6.640;2024-03-07T12:41:52;6.50;99.90
51950;DHT22;37974;53.218;6.640;2024-03-07T12:44:19;6.40;99.90
51950;DHT22;37974;53.218;6.640;2024-03-07T12:46:47;6.40;99.90
51950;DHT22;37974;53.218;6.640;2024-03-07T12:49:14;6.30;99.90
51950;DHT22;37974;53.218;6.640;2024-03-07T12:51:42;6.30;99.90
51950;DHT22;37974;53.218;6.640;2024-03-07T12:54:07;6.30;99.90
51950;DHT22;37974;53.218;6.640;2024-03-07T12:56:36;6.30;99.90
51950;DHT22;37974;53.218;6.640;2024-03-07T12:59:04;6.30;99.90
51950;DHT22;37974;53.218;6.640;2024-03-07T13:01:30;6.20;99.90
51950;DHT22;37974;53.218;6.640;2024-03-07T13:03:58;6.10;99.90
51950;DHT22;37974;53.218;6.640;2024-03-07T13:06:25;6.10;99.90
51950;DHT22;37974;53.218;6.640;2024-03-07T13:08:55;6.10;99.90
51950;DHT22;37974;53.218;6.640;2024-03-07T13:11:23;6.10;99.90
51950;DHT22;37974;53.218;6.640;2024-03-07T13:13:49;6.10;99.90
51950;DHT22;37974;53.218;6.640;2024-03-07T13:16:40;6.10;99.90
51950;DHT22;37974;53.218;6.640;2024-03-07T13:19:16;6.10;99.90
51950;DHT22;37974;53.218;6.640;2024-03-07T13:21:47;6.10;99.90
51950;DHT22;37974;53.218;6.640;2024-03-07T13:24:17;6.20;99.90
51950;DHT22;37974;53.218;6.640;2024-03-07T13:26:43;6.20;99.90
51950;DHT22;37974;53.218;6.640;2024-03-07T13:33:11;6.20;99.90
51950;DHT22;37974;53.218;6.640;2024-03-07T13:35:38;6.30;99.90
51950;DHT22;37974;53.218;6.640;2024-03-07T13:38:04;6.30;99.90
51950;DHT22;37974;53.218;6.640;2024-03-07T13:40:30;6.40;99.90
51950;DHT22;37974;53.218;6.640;2024-03-07T13:42:58;6.40;99.90
51950;DHT22;37974;53.218;6.640;2024-03-07T13:47:53;6.50;99.90
51950;DHT22;37974;53.218;6.640;2024-03-07T13:50:21;6.50;99.90
51950;DHT22;37974;53.218;6.640;2024-03-07T13:52:48;6.60;99.90
51950;DHT22;37974;53.218;6.640;2024-03-07T13:58:39;6.70;99.90
51950;DHT22;37974;53.218;6.640;2024-03-07T14:06:50;6.90;99.90
51950;DHT22;37974;53.218;6.640;2024-03-07T14:09:56;6.90;99.90
51950;DHT22;37974;53.218;6.640;2024-03-07T14:12:41;6.90;99.90
51950;DHT22;37974;53.218;6.640;2024-03-07T14:21:42;6.80;99.90
51950;DHT22;37974;53.218;6.640;2024-03-07T14:27:22;6.80;99.90
51950;DHT22;37974;53.218;6.640;2024-03-07T14:30:11;6.80;99.90
51950;DHT22;37974;53.218;6.640;2024-03-07T14:32:47;6.80;99.90
51950;DHT22;37974;53.218;6.640;2024-03-07T14:37:46;6.90;99.90
51950;DHT22;37974;53.218;6.640;2024-03-07T14:40:16;6.80;99.90
51950;DHT22;37974;53.218;6.640;2024-03-07T14:42:44;6.80;99.90
51950;DHT22;37974;53.218;6.640;2024-03-07T14:45:14;6.70;99.90
51950;DHT22;37974;53.218;6.640;2024-03-07T14:47:43;6.80;99.90
51950;DHT22;37974;53.218;6.640;2024-03-07T14:50:09;6.80;99.90
51950;DHT22;37974;53.218;6.640;2024-03-07T14:52:36;6.80;99.90
51950;DHT22;37974;53.218;6.640;2024-03-07T14:55:07;6.80;99.90
51950;DHT22;37974;53.218;6.640;2024-03-07T14:57:33;6.80;99.90
51950;DHT22;37974;53.218;6.640;2024-03-07T14:59:59;6.80;99.90
51950;DHT22;37974;53.218;6.640;2024-03-07T15:02:25;6.80;99.90
51950;DHT22;37974;53.218;6.640;2024-03-07T15:04:51;6.90;99.90
51950;DHT22;37974;53.218;6.640;2024-03-07T15:07:18;6.90;99.90
51950;DHT22;37974;53.218;6.640;2024-03-07T15:09:49;6.90;99.90
51950;DHT22;37974;53.218;6.640;2024-03-07T15:12:15;6.90;99.90
51950;DHT22;37974;53.218;6.640;2024-03-07T15:14:42;6.90;99.90
51950;DHT22;37974;53.218;6.640;2024-03-07T15:17:08;6.90;99.90
51950;DHT22;37974;53.218;6.640;2024-03-07T15:19:34;6.90;99.90
51950;DHT22;37974;53.218;6.640;2024-03-07T15:22:01;6.90;99.90
51950;DHT22;37974;53.218;6.640;2024-03-07T15:24:30;6.80;99.90
51950;DHT22;37974;53.218;6.640;2024-03-07T15:26:55;6.80;99.90
51950;DHT22;37974;53.218;6.640;2024-03-07T15:29:23;6.80;99.90
51950;DHT22;37974;53.218;6.640;2024-03-07T15:31:49;6.80;99.90
51950;DHT22;37974;53.218;6.640;2024-03-07T15:34:15;6.80;99.90
51950;DHT22;37974;53.218;6.640;2024-03-07T15:36:42;6.80;99.90
51950;DHT22;37974;53.218;6.640;2024-03-07T15:39:09;6.80;99.90
51950;DHT22;37974;53.218;6.640;2024-03-07T15:41:45;6.90;99.90
51950;DHT22;37974;53.218;6.640;2024-03-07T15:44:12;6.90;99.90
51950;DHT22;37974;53.218;6.640;2024-03-07T15:46:38;6.90;99.90
51950;DHT22;37974;53.218;6.640;2024-03-07T15:49:03;6.90;99.90
51950;DHT22;37974;53.218;6.640;2024-03-07T15:51:29;6.90;99.90
51950;DHT22;37974;53.218;6.640;2024-03-07T15:53:55;6.90;99.90
51950;DHT22;37974;53.218;6.640;2024-03-07T15:56:20;6.80;99.90
51950;DHT22;37974;53.218;6.640;2024-03-07T15:58:46;6.80;99.90
51950;DHT22;37974;53.218;6.640;2024-03-07T16:01:12;6.80;99.90
51950;DHT22;37974;53.218;6.640;2024-03-07T16:03:42;6.80;99.90
51950;DHT22;37974;53.218;6.640;2024-03-07T16:06:08;6.80;99.90
51950;DHT22;37974;53.218;6.640;2024-03-07T16:08:33;6.70;99.90
51950;DHT22;37974;53.218;6.640;2024-03-07T16:10:59;6.70;99.90
51950;DHT22;37974;53.218;6.640;2024-03-07T16:13:25;6.70;99.90
51950;DHT22;37974;53.218;6.640;2024-03-07T16:15:50;6.60;99.90
51950;DHT22;37974;53.218;6.640;2024-03-07T16:18:17;6.60;99.90
51950;DHT22;37974;53.218;6.640;2024-03-07T16:20:42;6.60;99.90